sensor_id;sensor_type;location;lat;lon;timestamp;P1;durP1;ratioP1;P2;durP2;ratioP2
37859;SDS011;23698;52.014;5.190;2023-01-26T00:02:28;218.60;;;51.03;;
37859;SDS011;23698;52.014;5.190;2023-01-26T00:05:15;202.60;;;50.38;;
37859;SDS011;23698;52.014;5.190;2023-01-26T00:08:02;188.13;;;48.92;;
37859;SDS011;23698;52.014;5.190;2023-01-26T00:10:49;187.63;;;47.95;;
37859;SDS011;23698;52.014;5.190;2023-01-26T00:13:36;206.18;;;49.60;;
37859;SDS011;23698;52.014;5.190;2023-01-26T00:16:24;189.52;;;46.55;;
37859;SDS011;23698;52.014;5.190;2023-01-26T00:19:12;190.18;;;46.38;;
37859;SDS011;23698;52.014;5.190;2023-01-26T00:21:58;179.25;;;44.50;;
37859;SDS011;23698;52.014;5.190;2023-01-26T00:24:45;168.40;;;42.08;;
37859;SDS011;23698;52.014;5.190;2023-01-26T00:27:32;166.07;;;41.13;;
37859;SDS011;23698;52.014;5.190;2023-01-26T00:30:18;178.70;;;41.90;;
37859;SDS011;23698;52.014;5.190;2023-01-26T00:33:06;170.55;;;41.78;;
37859;SDS011;23698;52.014;5.190;2023-01-26T00:35:53;167.18;;;41.30;;
37859;SDS011;23698;52.014;5.190;2023-01-26T00:38:39;169.88;;;43.97;;
37859;SDS011;23698;52.014;5.190;2023-01-26T00:41:27;158.18;;;41.50;;
37859;SDS011;23698;52.014;5.190;2023-01-26T00:44:32;152.93;;;38.03;;
37859;SDS011;23698;52.014;5.190;2023-01-26T00:47:19;175.18;;;42.13;;
37859;SDS011;23698;52.014;5.190;2023-01-26T00:50:09;161.32;;;41.67;;
37859;SDS011;23698;52.014;5.190;2023-01-26T00:52:57;157.95;;;40.05;;
37859;SDS011;23698;52.014;5.190;2023-01-26T00:55:43;158.57;;;40.67;;
37859;SDS011;23698;52.014;5.190;2023-01-26T00:58:30;142.52;;;38.38;;
37859;SDS011;23698;52.014;5.190;2023-01-26T01:01:16;163.77;;;40.45;;
37859;SDS011;23698;52.014;5.190;2023-01-26T01:04:03;145.98;;;38.72;;
37859;SDS011;23698;52.014;5.190;2023-01-26T01:06:52;144.00;;;36.35;;
37859;SDS011;23698;52.014;5.190;2023-01-26T01:09:38;143.27;;;38.13;;
37859;SDS011;23698;52.014;5.190;2023-01-26T01:12:25;133.15;;;38.28;;
37859;SDS011;23698;52.014;5.190;2023-01-26T01:18:03;139.55;;;35.58;;
37859;SDS011;23698;52.014;5.190;2023-01-26T01:20:49;147.95;;;36.88;;
37859;SDS011;23698;52.014;5.190;2023-01-26T01:23:37;146.82;;;35.80;;
37859;SDS011;23698;52.014;5.190;2023-01-26T01:26:25;140.98;;;38.22;;
37859;SDS011;23698;52.014;5.190;2023-01-26T01:29:12;123.18;;;34.45;;
37859;SDS011;23698;52.014;5.190;2023-01-26T01:31:59;146.20;;;36.55;;
37859;SDS011;23698;52.014;5.190;2023-01-26T01:34:46;130.60;;;37.33;;
37859;SDS011;23698;52.014;5.190;2023-01-26T01:37:33;137.10;;;36.42;;
37859;SDS011;23698;52.014;5.190;2023-01-26T01:40:22;143.88;;;39.17;;
37859;SDS011;23698;52.014;5.190;2023-01-26T01:43:10;134.20;;;37.63;;
37859;SDS011;23698;52.014;5.190;2023-01-26T01:45:57;133.43;;;35.55;;
37859;SDS011;23698;52.014;5.190;2023-01-26T01:48:47;137.15;;;37.25;;
37859;SDS011;23698;52.014;5.190;2023-01-26T01:51:39;130.27;;;35.83;;
37859;SDS011;23698;52.014;5.190;2023-01-26T01:54:31;128.40;;;36.45;;
37859;SDS011;23698;52.014;5.190;2023-01-26T01:57:22;137.85;;;34.65;;
37859;SDS011;23698;52.014;5.190;2023-01-26T02:00:13;127.60;;;34.88;;
37859;SDS011;23698;52.014;5.190;2023-01-26T02:03:06;131.20;;;35.63;;
37859;SDS011;23698;52.014;5.190;2023-01-26T02:06:00;130.73;;;34.53;;
37859;SDS011;23698;52.014;5.190;2023-01-26T02:08:50;130.02;;;33.53;;
37859;SDS011;23698;52.014;5.190;2023-01-26T02:11:39;139.07;;;34.33;;
37859;SDS011;23698;52.014;5.190;2023-01-26T02:14:30;128.00;;;35.10;;
37859;SDS011;23698;52.014;5.190;2023-01-26T02:17:17;128.73;;;33.60;;
37859;SDS011;23698;52.014;5.190;2023-01-26T02:20:07;138.73;;;36.72;;
37859;SDS011;23698;52.014;5.190;2023-01-26T02:23:00;123.25;;;35.03;;
37859;SDS011;23698;52.014;5.190;2023-01-26T02:26:07;122.05;;;33.97;;
37859;SDS011;23698;52.014;5.190;2023-01-26T02:31:43;138.23;;;35.78;;
37859;SDS011;23698;52.014;5.190;2023-01-26T02:34:30;122.55;;;33.53;;
37859;SDS011;23698;52.014;5.190;2023-01-26T02:37:17;132.02;;;33.63;;
37859;SDS011;23698;52.014;5.190;2023-01-26T02:40:04;116.13;;;35.40;;
37859;SDS011;23698;52.014;5.190;2023-01-26T02:43:00;115.93;;;34.00;;
37859;SDS011;23698;52.014;5.190;2023-01-26T02:45:47;122.60;;;33.80;;
37859;SDS011;23698;52.014;5.190;2023-01-26T02:48:33;128.18;;;35.63;;
37859;SDS011;23698;52.014;5.190;2023-01-26T02:51:37;130.43;;;35.25;;
37859;SDS011;23698;52.014;5.190;2023-01-26T02:54:24;128.75;;;35.25;;
37859;SDS011;23698;52.014;5.190;2023-01-26T02:57:29;126.35;;;34.08;;
37859;SDS011;23698;52.014;5.190;2023-01-26T03:00:20;129.95;;;33.28;;
37859;SDS011;23698;52.014;5.190;2023-01-26T03:03:10;132.45;;;34.05;;
37859;SDS011;23698;52.014;5.190;2023-01-26T03:05:59;126.50;;;34.70;;
37859;SDS011;23698;52.014;5.190;2023-01-26T03:08:47;122.85;;;33.20;;
37859;SDS011;23698;52.014;5.190;2023-01-26T03:11:34;126.38;;;33.92;;
37859;SDS011;23698;52.014;5.190;2023-01-26T03:14:26;138.75;;;34.63;;
37859;SDS011;23698;52.014;5.190;2023-01-26T03:17:14;128.00;;;34.65;;
37859;SDS011;23698;52.014;5.190;2023-01-26T03:20:01;121.10;;;32.10;;
37859;SDS011;23698;52.014;5.190;2023-01-26T03:23:10;126.90;;;32.97;;
37859;SDS011;23698;52.014;5.190;2023-01-26T03:26:15;130.38;;;34.00;;
37859;SDS011;23698;52.014;5.190;2023-01-26T03:29:20;119.93;;;32.17;;
37859;SDS011;23698;52.014;5.190;2023-01-26T03:32:08;123.45;;;32.10;;
37859;SDS011;23698;52.014;5.190;2023-01-26T03:34:58;117.70;;;30.40;;
37859;SDS011;23698;52.014;5.190;2023-01-26T03:37:45;121.25;;;32.60;;
37859;SDS011;23698;52.014;5.190;2023-01-26T03:40:59;118.18;;;30.73;;
37859;SDS011;23698;52.014;5.190;2023-01-26T03:44:03;123.50;;;30.90;;
37859;SDS011;23698;52.014;5.190;2023-01-26T03:47:09;112.25;;;30.15;;
37859;SDS011;23698;52.014;5.190;2023-01-26T03:50:14;108.80;;;30.88;;
37859;SDS011;23698;52.014;5.190;2023-01-26T03:53:19;109.50;;;30.40;;
37859;SDS011;23698;52.014;5.190;2023-01-26T03:56:27;103.45;;;28.13;;
37859;SDS011;23698;52.014;5.190;2023-01-26T03:59:21;97.63;;;29.65;;
37859;SDS011;23698;52.014;5.190;2023-01-26T04:02:24;109.25;;;29.23;;
37859;SDS011;23698;52.014;5.190;2023-01-26T04:05:30;106.38;;;29.52;;
37859;SDS011;23698;52.014;5.190;2023-01-26T04:08:34;106.43;;;28.05;;
37859;SDS011;23698;52.014;5.190;2023-01-26T04:11:22;109.88;;;30.77;;
37859;SDS011;23698;52.014;5.190;2023-01-26T04:14:09;95.97;;;28.70;;
37859;SDS011;23698;52.014;5.190;2023-01-26T04:17:18;99.50;;;28.88;;
37859;SDS011;23698;52.014;5.190;2023-01-26T04:20:22;91.93;;;27.60;;
37859;SDS011;23698;52.014;5.190;2023-01-26T04:23:27;90.43;;;26.25;;
37859;SDS011;23698;52.014;5.190;2023-01-26T04:26:14;92.88;;;27.48;;
37859;SDS011;23698;52.014;5.190;2023-01-26T04:29:01;89.47;;;26.13;;
37859;SDS011;23698;52.014;5.190;2023-01-26T04:31:48;95.57;;;26.98;;
37859;SDS011;23698;52.014;5.190;2023-01-26T04:34:37;92.45;;;27.25;;
37859;SDS011;23698;52.014;5.190;2023-01-26T04:37:32;94.28;;;26.98;;
37859;SDS011;23698;52.014;5.190;2023-01-26T04:40:20;92.55;;;26.13;;
37859;SDS011;23698;52.014;5.190;2023-01-26T04:43:07;104.00;;;28.20;;
37859;SDS011;23698;52.014;5.190;2023-01-26T04:45:57;98.10;;;27.27;;
37859;SDS011;23698;52.014;5.190;2023-01-26T04:48:46;127.18;;;42.47;;
37859;SDS011;23698;52.014;5.190;2023-01-26T04:51:32;123.35;;;37.65;;
37859;SDS011;23698;52.014;5.190;2023-01-26T04:54:19;95.90;;;27.25;;
37859;SDS011;23698;52.014;5.190;2023-01-26T04:57:07;98.18;;;27.98;;
37859;SDS011;23698;52.014;5.190;2023-01-26T04:59:58;92.38;;;27.27;;
37859;SDS011;23698;52.014;5.190;2023-01-26T05:02:45;92.65;;;26.27;;
37859;SDS011;23698;52.014;5.190;2023-01-26T05:05:34;89.55;;;28.65;;
37859;SDS011;23698;52.014;5.190;2023-01-26T05:08:21;91.18;;;26.05;;
37859;SDS011;23698;52.014;5.190;2023-01-26T05:11:08;90.70;;;28.77;;
37859;SDS011;23698;52.014;5.190;2023-01-26T05:14:20;78.43;;;24.52;;
37859;SDS011;23698;52.014;5.190;2023-01-26T05:17:21;83.95;;;25.77;;
37859;SDS011;23698;52.014;5.190;2023-01-26T05:20:34;151.88;;;51.95;;
37859;SDS011;23698;52.014;5.190;2023-01-26T05:23:31;106.60;;;33.85;;
37859;SDS011;23698;52.014;5.190;2023-01-26T05:26:31;87.90;;;28.10;;
37859;SDS011;23698;52.014;5.190;2023-01-26T05:32:10;80.35;;;25.60;;
37859;SDS011;23698;52.014;5.190;2023-01-26T05:34:57;84.85;;;25.08;;
37859;SDS011;23698;52.014;5.190;2023-01-26T05:37:43;80.65;;;26.08;;
37859;SDS011;23698;52.014;5.190;2023-01-26T05:40:31;91.45;;;29.33;;
37859;SDS011;23698;52.014;5.190;2023-01-26T05:43:18;81.25;;;23.90;;
37859;SDS011;23698;52.014;5.190;2023-01-26T05:46:25;81.80;;;24.30;;
37859;SDS011;23698;52.014;5.190;2023-01-26T05:49:11;83.13;;;25.35;;
37859;SDS011;23698;52.014;5.190;2023-01-26T05:51:58;85.30;;;27.95;;
37859;SDS011;23698;52.014;5.190;2023-01-26T05:54:47;84.50;;;26.33;;
37859;SDS011;23698;52.014;5.190;2023-01-26T05:57:34;88.40;;;27.73;;
37859;SDS011;23698;52.014;5.190;2023-01-26T06:00:24;83.25;;;25.50;;
37859;SDS011;23698;52.014;5.190;2023-01-26T06:03:19;84.25;;;25.83;;
37859;SDS011;23698;52.014;5.190;2023-01-26T06:06:07;74.90;;;24.33;;
37859;SDS011;23698;52.014;5.190;2023-01-26T06:09:06;89.13;;;27.58;;
37859;SDS011;23698;52.014;5.190;2023-01-26T06:12:13;82.82;;;26.63;;
37859;SDS011;23698;52.014;5.190;2023-01-26T06:15:13;92.70;;;29.45;;
37859;SDS011;23698;52.014;5.190;2023-01-26T06:18:02;82.20;;;27.83;;
37859;SDS011;23698;52.014;5.190;2023-01-26T06:20:51;79.53;;;25.60;;
37859;SDS011;23698;52.014;5.190;2023-01-26T06:23:38;74.40;;;24.42;;
37859;SDS011;23698;52.014;5.190;2023-01-26T06:26:24;72.05;;;23.35;;
37859;SDS011;23698;52.014;5.190;2023-01-26T06:29:13;71.93;;;24.52;;
37859;SDS011;23698;52.014;5.190;2023-01-26T06:32:00;74.88;;;25.35;;
37859;SDS011;23698;52.014;5.190;2023-01-26T06:34:47;67.13;;;22.85;;
37859;SDS011;23698;52.014;5.190;2023-01-26T06:37:36;67.70;;;24.15;;
37859;SDS011;23698;52.014;5.190;2023-01-26T06:40:22;72.78;;;24.17;;
37859;SDS011;23698;52.014;5.190;2023-01-26T06:43:09;64.20;;;22.67;;
37859;SDS011;23698;52.014;5.190;2023-01-26T06:45:56;60.08;;;22.10;;
37859;SDS011;23698;52.014;5.190;2023-01-26T06:48:43;67.18;;;22.42;;
37859;SDS011;23698;52.014;5.190;2023-01-26T06:51:37;62.05;;;21.85;;
37859;SDS011;23698;52.014;5.190;2023-01-26T06:54:31;67.77;;;22.40;;
37859;SDS011;23698;52.014;5.190;2023-01-26T06:57:18;59.58;;;21.13;;
37859;SDS011;23698;52.014;5.190;2023-01-26T07:00:21;64.97;;;21.92;;
37859;SDS011;23698;52.014;5.190;2023-01-26T07:03:15;63.33;;;22.85;;
37859;SDS011;23698;52.014;5.190;2023-01-26T07:06:02;62.95;;;21.58;;
37859;SDS011;23698;52.014;5.190;2023-01-26T07:08:50;61.30;;;22.70;;
37859;SDS011;23698;52.014;5.190;2023-01-26T07:11:38;64.07;;;21.90;;
37859;SDS011;23698;52.014;5.190;2023-01-26T07:14:25;58.60;;;21.77;;
37859;SDS011;23698;52.014;5.190;2023-01-26T07:17:12;67.78;;;22.05;;
37859;SDS011;23698;52.014;5.190;2023-01-26T07:19:59;64.40;;;22.05;;
37859;SDS011;23698;52.014;5.190;2023-01-26T07:22:45;66.70;;;20.83;;
37859;SDS011;23698;52.014;5.190;2023-01-26T07:25:32;61.17;;;23.30;;
37859;SDS011;23698;52.014;5.190;2023-01-26T07:28:20;57.55;;;22.35;;
37859;SDS011;23698;52.014;5.190;2023-01-26T07:31:09;64.50;;;22.98;;
37859;SDS011;23698;52.014;5.190;2023-01-26T07:33:56;58.28;;;21.38;;
37859;SDS011;23698;52.014;5.190;2023-01-26T07:36:43;70.45;;;22.73;;
37859;SDS011;23698;52.014;5.190;2023-01-26T07:39:29;77.65;;;24.42;;
37859;SDS011;23698;52.014;5.190;2023-01-26T07:42:16;75.57;;;23.23;;
37859;SDS011;23698;52.014;5.190;2023-01-26T07:45:17;69.80;;;22.60;;
37859;SDS011;23698;52.014;5.190;2023-01-26T07:48:05;74.35;;;23.98;;
37859;SDS011;23698;52.014;5.190;2023-01-26T07:50:52;88.10;;;23.35;;
37859;SDS011;23698;52.014;5.190;2023-01-26T07:53:39;83.75;;;22.98;;
37859;SDS011;23698;52.014;5.190;2023-01-26T07:56:28;81.90;;;23.15;;
37859;SDS011;23698;52.014;5.190;2023-01-26T07:59:15;72.70;;;22.65;;
37859;SDS011;23698;52.014;5.190;2023-01-26T08:02:02;87.65;;;24.30;;
37859;SDS011;23698;52.014;5.190;2023-01-26T08:04:49;77.63;;;23.25;;
37859;SDS011;23698;52.014;5.190;2023-01-26T08:07:36;71.50;;;23.15;;
37859;SDS011;23698;52.014;5.190;2023-01-26T08:10:23;83.07;;;22.73;;
37859;SDS011;23698;52.014;5.190;2023-01-26T08:13:10;75.07;;;23.45;;
37859;SDS011;23698;52.014;5.190;2023-01-26T08:15:59;77.18;;;21.52;;
37859;SDS011;23698;52.014;5.190;2023-01-26T08:18:48;73.88;;;21.92;;
37859;SDS011;23698;52.014;5.190;2023-01-26T08:21:35;71.70;;;20.42;;
37859;SDS011;23698;52.014;5.190;2023-01-26T08:24:22;72.93;;;20.88;;
37859;SDS011;23698;52.014;5.190;2023-01-26T08:27:10;79.05;;;20.42;;
37859;SDS011;23698;52.014;5.190;2023-01-26T08:29:57;72.55;;;19.60;;
37859;SDS011;23698;52.014;5.190;2023-01-26T08:32:43;76.05;;;19.33;;
37859;SDS011;23698;52.014;5.190;2023-01-26T08:35:32;70.75;;;19.42;;
37859;SDS011;23698;52.014;5.190;2023-01-26T08:38:19;72.60;;;17.58;;
37859;SDS011;23698;52.014;5.190;2023-01-26T08:41:05;64.63;;;18.45;;
37859;SDS011;23698;52.014;5.190;2023-01-26T08:43:52;72.97;;;18.33;;
37859;SDS011;23698;52.014;5.190;2023-01-26T08:46:39;76.03;;;18.60;;
37859;SDS011;23698;52.014;5.190;2023-01-26T08:49:25;76.70;;;19.23;;
37859;SDS011;23698;52.014;5.190;2023-01-26T08:52:13;58.80;;;16.73;;
37859;SDS011;23698;52.014;5.190;2023-01-26T08:55:01;65.78;;;16.50;;
37859;SDS011;23698;52.014;5.190;2023-01-26T08:57:51;55.03;;;17.50;;
37859;SDS011;23698;52.014;5.190;2023-01-26T09:00:39;58.20;;;15.63;;
37859;SDS011;23698;52.014;5.190;2023-01-26T09:03:26;60.90;;;14.93;;
37859;SDS011;23698;52.014;5.190;2023-01-26T09:06:13;57.17;;;14.85;;
37859;SDS011;23698;52.014;5.190;2023-01-26T09:09:01;58.38;;;15.65;;
37859;SDS011;23698;52.014;5.190;2023-01-26T09:11:48;58.95;;;15.40;;
37859;SDS011;23698;52.014;5.190;2023-01-26T09:14:35;48.97;;;14.13;;
37859;SDS011;23698;52.014;5.190;2023-01-26T09:17:22;50.67;;;13.95;;
37859;SDS011;23698;52.014;5.190;2023-01-26T09:20:09;61.97;;;14.57;;
37859;SDS011;23698;52.014;5.190;2023-01-26T09:22:57;51.53;;;12.57;;
37859;SDS011;23698;52.014;5.190;2023-01-26T09:25:45;52.75;;;13.57;;
37859;SDS011;23698;52.014;5.190;2023-01-26T09:28:37;53.95;;;12.38;;
37859;SDS011;23698;52.014;5.190;2023-01-26T09:31:24;56.05;;;12.77;;
37859;SDS011;23698;52.014;5.190;2023-01-26T09:34:10;40.42;;;11.48;;
37859;SDS011;23698;52.014;5.190;2023-01-26T09:36:57;46.47;;;11.48;;
37859;SDS011;23698;52.014;5.190;2023-01-26T09:39:44;44.70;;;10.95;;
37859;SDS011;23698;52.014;5.190;2023-01-26T09:42:38;41.97;;;9.48;;
37859;SDS011;23698;52.014;5.190;2023-01-26T09:45:36;57.47;;;11.32;;
37859;SDS011;23698;52.014;5.190;2023-01-26T09:48:34;35.47;;;9.05;;
37859;SDS011;23698;52.014;5.190;2023-01-26T09:51:31;43.40;;;9.38;;
37859;SDS011;23698;52.014;5.190;2023-01-26T09:54:21;47.25;;;7.82;;
37859;SDS011;23698;52.014;5.190;2023-01-26T09:57:12;38.97;;;7.82;;
37859;SDS011;23698;52.014;5.190;2023-01-26T10:00:04;43.77;;;8.93;;
37859;SDS011;23698;52.014;5.190;2023-01-26T10:03:00;37.30;;;7.75;;
37859;SDS011;23698;52.014;5.190;2023-01-26T10:05:57;35.20;;;6.60;;
37859;SDS011;23698;52.014;5.190;2023-01-26T10:09:19;33.85;;;5.13;;
37859;SDS011;23698;52.014;5.190;2023-01-26T10:12:12;30.80;;;5.22;;
37859;SDS011;23698;52.014;5.190;2023-01-26T10:15:16;33.03;;;5.15;;
37859;SDS011;23698;52.014;5.190;2023-01-26T10:18:11;30.35;;;5.35;;
37859;SDS011;23698;52.014;5.190;2023-01-26T10:21:03;43.20;;;4.78;;
37859;SDS011;23698;52.014;5.190;2023-01-26T10:23:52;32.03;;;3.92;;
37859;SDS011;23698;52.014;5.190;2023-01-26T10:26:39;25.85;;;3.97;;
37859;SDS011;23698;52.014;5.190;2023-01-26T10:29:26;33.67;;;4.05;;
37859;SDS011;23698;52.014;5.190;2023-01-26T10:32:14;26.90;;;3.72;;
37859;SDS011;23698;52.014;5.190;2023-01-26T10:35:03;28.38;;;4.18;;
37859;SDS011;23698;52.014;5.190;2023-01-26T10:37:51;20.85;;;3.30;;
37859;SDS011;23698;52.014;5.190;2023-01-26T10:40:41;27.27;;;3.78;;
37859;SDS011;23698;52.014;5.190;2023-01-26T10:43:35;26.73;;;3.22;;
37859;SDS011;23698;52.014;5.190;2023-01-26T10:46:29;34.53;;;4.70;;
37859;SDS011;23698;52.014;5.190;2023-01-26T10:49:19;30.77;;;3.83;;
37859;SDS011;23698;52.014;5.190;2023-01-26T10:52:07;31.75;;;4.35;;
37859;SDS011;23698;52.014;5.190;2023-01-26T10:55:08;31.75;;;3.42;;
37859;SDS011;23698;52.014;5.190;2023-01-26T10:57:56;24.23;;;3.88;;
37859;SDS011;23698;52.014;5.190;2023-01-26T11:00:43;19.17;;;3.67;;
37859;SDS011;23698;52.014;5.190;2023-01-26T11:03:39;24.60;;;3.50;;
37859;SDS011;23698;52.014;5.190;2023-01-26T11:06:28;21.27;;;3.58;;
37859;SDS011;23698;52.014;5.190;2023-01-26T11:09:16;25.25;;;3.40;;
37859;SDS011;23698;52.014;5.190;2023-01-26T11:12:05;21.55;;;3.13;;
37859;SDS011;23698;52.014;5.190;2023-01-26T11:14:58;39.15;;;4.18;;
37859;SDS011;23698;52.014;5.190;2023-01-26T11:17:50;18.38;;;3.13;;
37859;SDS011;23698;52.014;5.190;2023-01-26T11:20:46;26.30;;;4.35;;
37859;SDS011;23698;52.014;5.190;2023-01-26T11:23:41;25.48;;;4.70;;
37859;SDS011;23698;52.014;5.190;2023-01-26T11:33:12;27.13;;;3.47;;
37859;SDS011;23698;52.014;5.190;2023-01-26T11:36:08;21.92;;;2.85;;
37859;SDS011;23698;52.014;5.190;2023-01-26T11:39:04;22.50;;;3.33;;
37859;SDS011;23698;52.014;5.190;2023-01-26T11:42:06;18.48;;;3.17;;
37859;SDS011;23698;52.014;5.190;2023-01-26T11:45:14;17.15;;;2.65;;
37859;SDS011;23698;52.014;5.190;2023-01-26T11:48:09;17.80;;;2.65;;
37859;SDS011;23698;52.014;5.190;2023-01-26T11:51:08;14.95;;;3.10;;
37859;SDS011;23698;52.014;5.190;2023-01-26T11:54:17;17.42;;;2.40;;
37859;SDS011;23698;52.014;5.190;2023-01-26T11:57:23;22.55;;;3.00;;
37859;SDS011;23698;52.014;5.190;2023-01-26T12:00:14;25.55;;;3.13;;
37859;SDS011;23698;52.014;5.190;2023-01-26T12:03:17;20.45;;;3.00;;
37859;SDS011;23698;52.014;5.190;2023-01-26T12:06:13;20.13;;;3.05;;
37859;SDS011;23698;52.014;5.190;2023-01-26T12:09:03;18.23;;;2.53;;
37859;SDS011;23698;52.014;5.190;2023-01-26T12:11:58;18.55;;;2.50;;
37859;SDS011;23698;52.014;5.190;2023-01-26T12:14:49;17.58;;;2.35;;
37859;SDS011;23698;52.014;5.190;2023-01-26T12:17:44;21.15;;;2.30;;
37859;SDS011;23698;52.014;5.190;2023-01-26T12:20:40;17.00;;;2.47;;
37859;SDS011;23698;52.014;5.190;2023-01-26T12:23:30;22.85;;;2.80;;
37859;SDS011;23698;52.014;5.190;2023-01-26T12:26:23;21.02;;;2.67;;
37859;SDS011;23698;52.014;5.190;2023-01-26T12:29:16;15.35;;;2.58;;
37859;SDS011;23698;52.014;5.190;2023-01-26T12:32:07;12.50;;;1.92;;
37859;SDS011;23698;52.014;5.190;2023-01-26T12:34:57;16.23;;;2.50;;
37859;SDS011;23698;52.014;5.190;2023-01-26T12:37:44;22.52;;;3.13;;
37859;SDS011;23698;52.014;5.190;2023-01-26T12:40:39;14.85;;;2.47;;
37859;SDS011;23698;52.014;5.190;2023-01-26T12:43:37;22.38;;;2.55;;
37859;SDS011;23698;52.014;5.190;2023-01-26T12:46:35;19.88;;;2.40;;
37859;SDS011;23698;52.014;5.190;2023-01-26T12:49:28;21.10;;;3.22;;
37859;SDS011;23698;52.014;5.190;2023-01-26T12:52:22;16.17;;;2.67;;
37859;SDS011;23698;52.014;5.190;2023-01-26T12:55:15;17.65;;;2.60;;
37859;SDS011;23698;52.014;5.190;2023-01-26T13:00:58;8.68;;;1.77;;
37859;SDS011;23698;52.014;5.190;2023-01-26T13:03:52;13.88;;;2.25;;
37859;SDS011;23698;52.014;5.190;2023-01-26T13:06:40;19.00;;;2.92;;
37859;SDS011;23698;52.014;5.190;2023-01-26T13:09:27;10.95;;;2.55;;
37859;SDS011;23698;52.014;5.190;2023-01-26T13:15:29;14.70;;;2.03;;
37859;SDS011;23698;52.014;5.190;2023-01-26T13:18:17;17.90;;;2.28;;
37859;SDS011;23698;52.014;5.190;2023-01-26T13:21:05;13.23;;;2.33;;
37859;SDS011;23698;52.014;5.190;2023-01-26T13:23:54;16.30;;;1.85;;
37859;SDS011;23698;52.014;5.190;2023-01-26T13:26:40;17.20;;;2.22;;
37859;SDS011;23698;52.014;5.190;2023-01-26T13:29:31;13.75;;;2.20;;
37859;SDS011;23698;52.014;5.190;2023-01-26T13:35:46;10.85;;;2.38;;
37859;SDS011;23698;52.014;5.190;2023-01-26T13:38:37;14.63;;;1.58;;
37859;SDS011;23698;52.014;5.190;2023-01-26T13:41:27;15.05;;;1.83;;
37859;SDS011;23698;52.014;5.190;2023-01-26T13:44:15;16.05;;;1.95;;
37859;SDS011;23698;52.014;5.190;2023-01-26T13:47:07;14.13;;;1.50;;
37859;SDS011;23698;52.014;5.190;2023-01-26T13:49:58;15.48;;;1.83;;
37859;SDS011;23698;52.014;5.190;2023-01-26T13:52:45;12.85;;;2.20;;
37859;SDS011;23698;52.014;5.190;2023-01-26T13:55:33;12.85;;;1.80;;
37859;SDS011;23698;52.014;5.190;2023-01-26T13:58:26;10.20;;;1.35;;
37859;SDS011;23698;52.014;5.190;2023-01-26T14:01:13;22.58;;;2.33;;
37859;SDS011;23698;52.014;5.190;2023-01-26T14:04:01;12.52;;;2.15;;
37859;SDS011;23698;52.014;5.190;2023-01-26T14:06:50;11.50;;;1.85;;
37859;SDS011;23698;52.014;5.190;2023-01-26T14:09:41;16.00;;;1.92;;
37859;SDS011;23698;52.014;5.190;2023-01-26T14:12:33;12.30;;;1.38;;
37859;SDS011;23698;52.014;5.190;2023-01-26T14:15:26;15.85;;;1.92;;
37859;SDS011;23698;52.014;5.190;2023-01-26T14:18:19;16.73;;;2.13;;
37859;SDS011;23698;52.014;5.190;2023-01-26T14:21:13;14.02;;;2.45;;
37859;SDS011;23698;52.014;5.190;2023-01-26T14:24:04;11.00;;;1.92;;
37859;SDS011;23698;52.014;5.190;2023-01-26T14:26:54;16.67;;;1.73;;
37859;SDS011;23698;52.014;5.190;2023-01-26T14:29:42;8.07;;;2.10;;
37859;SDS011;23698;52.014;5.190;2023-01-26T14:32:29;10.57;;;1.58;;
37859;SDS011;23698;52.014;5.190;2023-01-26T14:35:17;11.95;;;1.85;;
37859;SDS011;23698;52.014;5.190;2023-01-26T14:38:11;12.15;;;1.88;;
37859;SDS011;23698;52.014;5.190;2023-01-26T14:41:00;16.00;;;1.90;;
37859;SDS011;23698;52.014;5.190;2023-01-26T14:43:48;14.00;;;2.22;;
37859;SDS011;23698;52.014;5.190;2023-01-26T14:46:49;13.57;;;2.13;;
37859;SDS011;23698;52.014;5.190;2023-01-26T14:49:43;12.25;;;1.70;;
37859;SDS011;23698;52.014;5.190;2023-01-26T14:52:34;7.85;;;1.40;;
37859;SDS011;23698;52.014;5.190;2023-01-26T14:55:25;17.05;;;2.38;;
37859;SDS011;23698;52.014;5.190;2023-01-26T14:58:14;18.92;;;2.30;;
37859;SDS011;23698;52.014;5.190;2023-01-26T15:01:06;10.52;;;1.83;;
37859;SDS011;23698;52.014;5.190;2023-01-26T15:03:58;9.35;;;1.20;;
37859;SDS011;23698;52.014;5.190;2023-01-26T15:06:47;11.13;;;1.67;;
37859;SDS011;23698;52.014;5.190;2023-01-26T15:09:34;10.93;;;1.60;;
37859;SDS011;23698;52.014;5.190;2023-01-26T15:12:21;12.25;;;1.60;;
37859;SDS011;23698;52.014;5.190;2023-01-26T15:15:10;9.18;;;1.90;;
37859;SDS011;23698;52.014;5.190;2023-01-26T15:17:59;9.95;;;1.45;;
37859;SDS011;23698;52.014;5.190;2023-01-26T15:20:52;7.05;;;1.05;;
37859;SDS011;23698;52.014;5.190;2023-01-26T15:23:48;10.60;;;1.90;;
37859;SDS011;23698;52.014;5.190;2023-01-26T15:26:35;12.68;;;1.80;;
37859;SDS011;23698;52.014;5.190;2023-01-26T15:29:23;12.07;;;1.50;;
37859;SDS011;23698;52.014;5.190;2023-01-26T15:32:24;12.60;;;1.67;;
37859;SDS011;23698;52.014;5.190;2023-01-26T15:35:18;14.18;;;1.40;;
37859;SDS011;23698;52.014;5.190;2023-01-26T15:38:09;21.55;;;1.80;;
37859;SDS011;23698;52.014;5.190;2023-01-26T15:40:57;13.85;;;2.20;;
37859;SDS011;23698;52.014;5.190;2023-01-26T15:43:44;8.70;;;1.30;;
37859;SDS011;23698;52.014;5.190;2023-01-26T15:46:30;25.10;;;2.58;;
37859;SDS011;23698;52.014;5.190;2023-01-26T15:49:17;11.27;;;1.58;;
37859;SDS011;23698;52.014;5.190;2023-01-26T15:52:08;14.25;;;1.95;;
37859;SDS011;23698;52.014;5.190;2023-01-26T15:55:00;16.17;;;2.13;;
37859;SDS011;23698;52.014;5.190;2023-01-26T15:57:46;10.52;;;2.25;;
37859;SDS011;23698;52.014;5.190;2023-01-26T16:00:33;11.43;;;1.75;;
37859;SDS011;23698;52.014;5.190;2023-01-26T16:03:21;11.52;;;1.58;;
37859;SDS011;23698;52.014;5.190;2023-01-26T16:06:11;11.05;;;1.67;;
37859;SDS011;23698;52.014;5.190;2023-01-26T16:09:03;8.02;;;1.40;;
37859;SDS011;23698;52.014;5.190;2023-01-26T16:11:51;7.03;;;1.73;;
37859;SDS011;23698;52.014;5.190;2023-01-26T16:14:38;10.90;;;1.70;;
37859;SDS011;23698;52.014;5.190;2023-01-26T16:17:25;7.10;;;1.38;;
37859;SDS011;23698;52.014;5.190;2023-01-26T16:20:12;13.35;;;1.35;;
37859;SDS011;23698;52.014;5.190;2023-01-26T16:22:58;11.38;;;1.25;;
37859;SDS011;23698;52.014;5.190;2023-01-26T16:25:46;9.93;;;1.60;;
37859;SDS011;23698;52.014;5.190;2023-01-26T16:28:34;11.90;;;1.42;;
37859;SDS011;23698;52.014;5.190;2023-01-26T16:31:22;10.13;;;1.75;;
37859;SDS011;23698;52.014;5.190;2023-01-26T16:34:10;10.48;;;1.50;;
37859;SDS011;23698;52.014;5.190;2023-01-26T16:36:57;12.32;;;1.90;;
37859;SDS011;23698;52.014;5.190;2023-01-26T16:39:43;11.90;;;2.20;;
37859;SDS011;23698;52.014;5.190;2023-01-26T16:42:30;11.32;;;1.70;;
37859;SDS011;23698;52.014;5.190;2023-01-26T16:45:19;8.93;;;1.77;;
37859;SDS011;23698;52.014;5.190;2023-01-26T16:48:08;10.13;;;2.50;;
37859;SDS011;23698;52.014;5.190;2023-01-26T16:50:58;12.20;;;2.10;;
37859;SDS011;23698;52.014;5.190;2023-01-26T16:53:47;8.23;;;1.60;;
37859;SDS011;23698;52.014;5.190;2023-01-26T16:56:34;9.88;;;1.30;;
37859;SDS011;23698;52.014;5.190;2023-01-26T16:59:20;12.38;;;2.20;;
37859;SDS011;23698;52.014;5.190;2023-01-26T17:02:10;8.23;;;1.40;;
37859;SDS011;23698;52.014;5.190;2023-01-26T17:05:08;13.60;;;1.50;;
37859;SDS011;23698;52.014;5.190;2023-01-26T17:07:58;12.77;;;1.98;;